sensor_id;sensor_type;location;lat;lon;timestamp;P1;durP1;ratioP1;P2;durP2;ratioP2
33190;SDS011;19554;42.652;23.364;2023-10-31T00:00:50;10.68;;;4.40;;
33190;SDS011;19554;42.652;23.364;2023-10-31T00:03:15;8.88;;;3.95;;
33190;SDS011;19554;42.652;23.364;2023-10-31T00:05:41;9.65;;;4.50;;
33190;SDS011;19554;42.652;23.364;2023-10-31T00:08:06;8.80;;;4.32;;
33190;SDS011;19554;42.652;23.364;2023-10-31T00:10:31;12.98;;;5.70;;
33190;SDS011;19554;42.652;23.364;2023-10-31T00:12:57;11.48;;;4.40;;
33190;SDS011;19554;42.652;23.364;2023-10-31T00:15:22;13.82;;;4.95;;
33190;SDS011;19554;42.652;23.364;2023-10-31T00:17:49;9.57;;;4.90;;
33190;SDS011;19554;42.652;23.364;2023-10-31T00:20:15;6.22;;;3.83;;
33190;SDS011;19554;42.652;23.364;2023-10-31T00:22:40;9.65;;;4.85;;
33190;SDS011;19554;42.652;23.364;2023-10-31T00:25:06;10.57;;;4.50;;
33190;SDS011;19554;42.652;23.364;2023-10-31T00:27:31;10.13;;;4.45;;
33190;SDS011;19554;42.652;23.364;2023-10-31T00:29:57;6.72;;;4.40;;
33190;SDS011;19554;42.652;23.364;2023-10-31T00:32:22;11.00;;;4.28;;
33190;SDS011;19554;42.652;23.364;2023-10-31T00:34:48;6.82;;;4.15;;
33190;SDS011;19554;42.652;23.364;2023-10-31T00:37:14;7.60;;;4.18;;
33190;SDS011;19554;42.652;23.364;2023-10-31T00:39:39;7.90;;;4.28;;
33190;SDS011;19554;42.652;23.364;2023-10-31T00:42:05;8.52;;;4.30;;
33190;SDS011;19554;42.652;23.364;2023-10-31T00:44:30;6.95;;;4.15;;
33190;SDS011;19554;42.652;23.364;2023-10-31T00:46:56;11.23;;;4.05;;
33190;SDS011;19554;42.652;23.364;2023-10-31T00:49:21;9.75;;;4.32;;
33190;SDS011;19554;42.652;23.364;2023-10-31T00:51:46;8.73;;;4.22;;
33190;SDS011;19554;42.652;23.364;2023-10-31T00:54:12;7.32;;;4.30;;
33190;SDS011;19554;42.652;23.364;2023-10-31T00:56:37;10.57;;;4.82;;
33190;SDS011;19554;42.652;23.364;2023-10-31T00:59:02;11.02;;;4.63;;
33190;SDS011;19554;42.652;23.364;2023-10-31T01:01:28;8.10;;;4.28;;
33190;SDS011;19554;42.652;23.364;2023-10-31T01:03:53;13.25;;;4.30;;
33190;SDS011;19554;42.652;23.364;2023-10-31T01:06:19;9.57;;;5.03;;
33190;SDS011;19554;42.652;23.364;2023-10-31T01:08:44;10.40;;;4.45;;
33190;SDS011;19554;42.652;23.364;2023-10-31T01:11:10;9.02;;;4.45;;
33190;SDS011;19554;42.652;23.364;2023-10-31T01:13:35;8.65;;;5.07;;
33190;SDS011;19554;42.652;23.364;2023-10-31T01:16:00;17.40;;;6.10;;
33190;SDS011;19554;42.652;23.364;2023-10-31T01:18:26;13.45;;;6.15;;
33190;SDS011;19554;42.652;23.364;2023-10-31T01:20:51;9.80;;;4.28;;
33190;SDS011;19554;42.652;23.364;2023-10-31T01:23:17;11.05;;;4.70;;
33190;SDS011;19554;42.652;23.364;2023-10-31T01:25:42;15.13;;;4.85;;
33190;SDS011;19554;42.652;23.364;2023-10-31T01:28:08;10.88;;;5.05;;
33190;SDS011;19554;42.652;23.364;2023-10-31T01:30:33;11.75;;;4.70;;
33190;SDS011;19554;42.652;23.364;2023-10-31T01:32:58;8.25;;;4.78;;
33190;SDS011;19554;42.652;23.364;2023-10-31T01:35:24;13.23;;;4.07;;
33190;SDS011;19554;42.652;23.364;2023-10-31T01:37:49;11.13;;;4.22;;
33190;SDS011;19554;42.652;23.364;2023-10-31T01:40:15;9.07;;;3.80;;
33190;SDS011;19554;42.652;23.364;2023-10-31T01:42:40;8.10;;;4.15;;
33190;SDS011;19554;42.652;23.364;2023-10-31T01:45:06;9.15;;;3.97;;
33190;SDS011;19554;42.652;23.364;2023-10-31T01:47:32;12.20;;;5.00;;
33190;SDS011;19554;42.652;23.364;2023-10-31T01:49:57;7.43;;;4.00;;
33190;SDS011;19554;42.652;23.364;2023-10-31T01:52:24;10.30;;;4.75;;
33190;SDS011;19554;42.652;23.364;2023-10-31T01:54:50;10.35;;;5.00;;
33190;SDS011;19554;42.652;23.364;2023-10-31T01:57:15;9.43;;;4.80;;
33190;SDS011;19554;42.652;23.364;2023-10-31T01:59:41;9.38;;;4.57;;
33190;SDS011;19554;42.652;23.364;2023-10-31T02:02:06;9.27;;;4.15;;
33190;SDS011;19554;42.652;23.364;2023-10-31T02:04:32;8.95;;;3.83;;
33190;SDS011;19554;42.652;23.364;2023-10-31T02:06:58;12.70;;;4.88;;
33190;SDS011;19554;42.652;23.364;2023-10-31T02:09:23;8.45;;;4.88;;
33190;SDS011;19554;42.652;23.364;2023-10-31T02:11:51;10.07;;;4.55;;
33190;SDS011;19554;42.652;23.364;2023-10-31T02:14:17;11.00;;;4.80;;
33190;SDS011;19554;42.652;23.364;2023-10-31T02:16:43;12.05;;;5.90;;
33190;SDS011;19554;42.652;23.364;2023-10-31T02:19:08;8.57;;;4.72;;
33190;SDS011;19554;42.652;23.364;2023-10-31T02:21:38;10.88;;;4.35;;
33190;SDS011;19554;42.652;23.364;2023-10-31T02:24:04;8.23;;;4.15;;
33190;SDS011;19554;42.652;23.364;2023-10-31T02:26:33;8.45;;;4.18;;
33190;SDS011;19554;42.652;23.364;2023-10-31T02:29:00;9.73;;;4.20;;
33190;SDS011;19554;42.652;23.364;2023-10-31T02:31:26;4.65;;;3.70;;
33190;SDS011;19554;42.652;23.364;2023-10-31T02:33:52;5.47;;;3.63;;
33190;SDS011;19554;42.652;23.364;2023-10-31T02:36:17;8.23;;;3.92;;
33190;SDS011;19554;42.652;23.364;2023-10-31T02:38:43;8.85;;;3.75;;
33190;SDS011;19554;42.652;23.364;2023-10-31T02:41:09;11.63;;;4.45;;
33190;SDS011;19554;42.652;23.364;2023-10-31T02:43:35;6.65;;;4.07;;
33190;SDS011;19554;42.652;23.364;2023-10-31T02:46:00;11.85;;;4.88;;
33190;SDS011;19554;42.652;23.364;2023-10-31T02:48:26;6.55;;;3.97;;
33190;SDS011;19554;42.652;23.364;2023-10-31T02:50:51;6.28;;;3.70;;
33190;SDS011;19554;42.652;23.364;2023-10-31T02:53:20;5.63;;;3.45;;
33190;SDS011;19554;42.652;23.364;2023-10-31T02:55:45;8.98;;;3.60;;
33190;SDS011;19554;42.652;23.364;2023-10-31T02:58:11;8.70;;;3.60;;
33190;SDS011;19554;42.652;23.364;2023-10-31T03:00:36;10.43;;;4.50;;
33190;SDS011;19554;42.652;23.364;2023-10-31T03:03:02;10.88;;;4.15;;
33190;SDS011;19554;42.652;23.364;2023-10-31T03:05:28;8.18;;;4.03;;
33190;SDS011;19554;42.652;23.364;2023-10-31T03:07:53;10.32;;;4.50;;
33190;SDS011;19554;42.652;23.364;2023-10-31T03:10:19;8.27;;;4.22;;
33190;SDS011;19554;42.652;23.364;2023-10-31T03:12:45;6.78;;;4.10;;
33190;SDS011;19554;42.652;23.364;2023-10-31T03:15:11;8.43;;;3.80;;
33190;SDS011;19554;42.652;23.364;2023-10-31T03:17:36;10.25;;;4.22;;
33190;SDS011;19554;42.652;23.364;2023-10-31T03:20:02;10.82;;;4.72;;
33190;SDS011;19554;42.652;23.364;2023-10-31T03:22:28;10.85;;;4.57;;
33190;SDS011;19554;42.652;23.364;2023-10-31T03:24:53;9.10;;;4.25;;
33190;SDS011;19554;42.652;23.364;2023-10-31T03:27:19;11.40;;;4.65;;
33190;SDS011;19554;42.652;23.364;2023-10-31T03:29:44;9.88;;;4.45;;
33190;SDS011;19554;42.652;23.364;2023-10-31T03:32:10;11.10;;;4.20;;
33190;SDS011;19554;42.652;23.364;2023-10-31T03:34:36;8.25;;;4.22;;
33190;SDS011;19554;42.652;23.364;2023-10-31T03:37:02;9.57;;;4.70;;
33190;SDS011;19554;42.652;23.364;2023-10-31T03:39:28;11.07;;;4.70;;
33190;SDS011;19554;42.652;23.364;2023-10-31T03:41:53;11.30;;;4.45;;
33190;SDS011;19554;42.652;23.364;2023-10-31T03:44:19;7.30;;;4.90;;
33190;SDS011;19554;42.652;23.364;2023-10-31T03:46:44;7.60;;;4.00;;
33190;SDS011;19554;42.652;23.364;2023-10-31T03:49:09;10.73;;;4.40;;
33190;SDS011;19554;42.652;23.364;2023-10-31T03:51:35;10.90;;;4.97;;
33190;SDS011;19554;42.652;23.364;2023-10-31T03:54:00;9.82;;;4.15;;
33190;SDS011;19554;42.652;23.364;2023-10-31T03:56:25;7.60;;;4.35;;
33190;SDS011;19554;42.652;23.364;2023-10-31T03:58:51;10.70;;;4.45;;
33190;SDS011;19554;42.652;23.364;2023-10-31T04:01:16;10.30;;;4.43;;
33190;SDS011;19554;42.652;23.364;2023-10-31T04:03:41;8.82;;;4.28;;
33190;SDS011;19554;42.652;23.364;2023-10-31T04:06:07;10.48;;;4.68;;
33190;SDS011;19554;42.652;23.364;2023-10-31T04:08:33;8.23;;;4.70;;
33190;SDS011;19554;42.652;23.364;2023-10-31T04:10:58;8.48;;;4.00;;
33190;SDS011;19554;42.652;23.364;2023-10-31T04:13:23;10.05;;;4.28;;
33190;SDS011;19554;42.652;23.364;2023-10-31T04:15:49;6.80;;;4.20;;
33190;SDS011;19554;42.652;23.364;2023-10-31T04:18:14;8.10;;;4.38;;
33190;SDS011;19554;42.652;23.364;2023-10-31T04:20:39;10.88;;;5.20;;
33190;SDS011;19554;42.652;23.364;2023-10-31T04:23:05;9.32;;;4.38;;
33190;SDS011;19554;42.652;23.364;2023-10-31T04:25:31;8.25;;;4.22;;
33190;SDS011;19554;42.652;23.364;2023-10-31T04:27:56;8.45;;;4.65;;
33190;SDS011;19554;42.652;23.364;2023-10-31T04:30:22;9.50;;;5.03;;
33190;SDS011;19554;42.652;23.364;2023-10-31T04:32:48;10.02;;;5.15;;
33190;SDS011;19554;42.652;23.364;2023-10-31T04:35:13;11.23;;;4.70;;
33190;SDS011;19554;42.652;23.364;2023-10-31T04:37:39;10.15;;;4.85;;
33190;SDS011;19554;42.652;23.364;2023-10-31T04:40:04;11.13;;;4.82;;
33190;SDS011;19554;42.652;23.364;2023-10-31T04:42:31;8.43;;;4.75;;
33190;SDS011;19554;42.652;23.364;2023-10-31T04:44:58;8.55;;;5.18;;
33190;SDS011;19554;42.652;23.364;2023-10-31T04:47:24;11.27;;;4.57;;
33190;SDS011;19554;42.652;23.364;2023-10-31T04:49:50;13.85;;;5.85;;
33190;SDS011;19554;42.652;23.364;2023-10-31T04:52:17;16.40;;;7.13;;
33190;SDS011;19554;42.652;23.364;2023-10-31T04:54:44;16.23;;;5.53;;
33190;SDS011;19554;42.652;23.364;2023-10-31T04:57:09;12.63;;;6.28;;
33190;SDS011;19554;42.652;23.364;2023-10-31T04:59:34;18.08;;;6.78;;
33190;SDS011;19554;42.652;23.364;2023-10-31T05:02:00;10.15;;;5.63;;
33190;SDS011;19554;42.652;23.364;2023-10-31T05:04:25;8.32;;;5.72;;
33190;SDS011;19554;42.652;23.364;2023-10-31T05:06:51;12.70;;;5.97;;
33190;SDS011;19554;42.652;23.364;2023-10-31T05:09:16;11.95;;;5.15;;
33190;SDS011;19554;42.652;23.364;2023-10-31T05:11:43;10.98;;;5.13;;
33190;SDS011;19554;42.652;23.364;2023-10-31T05:14:08;10.10;;;5.30;;
33190;SDS011;19554;42.652;23.364;2023-10-31T05:16:39;15.25;;;7.25;;
33190;SDS011;19554;42.652;23.364;2023-10-31T05:19:07;21.38;;;6.88;;
33190;SDS011;19554;42.652;23.364;2023-10-31T05:21:33;15.88;;;6.20;;
33190;SDS011;19554;42.652;23.364;2023-10-31T05:23:58;10.15;;;6.40;;
33190;SDS011;19554;42.652;23.364;2023-10-31T05:26:23;19.13;;;6.80;;
33190;SDS011;19554;42.652;23.364;2023-10-31T05:28:49;19.38;;;7.28;;
33190;SDS011;19554;42.652;23.364;2023-10-31T05:31:17;26.52;;;7.57;;
33190;SDS011;19554;42.652;23.364;2023-10-31T05:33:43;13.30;;;5.97;;
33190;SDS011;19554;42.652;23.364;2023-10-31T05:36:17;14.48;;;6.00;;
33190;SDS011;19554;42.652;23.364;2023-10-31T05:38:46;13.73;;;5.55;;
33190;SDS011;19554;42.652;23.364;2023-10-31T05:41:12;13.93;;;5.78;;
33190;SDS011;19554;42.652;23.364;2023-10-31T05:43:38;18.00;;;6.82;;
33190;SDS011;19554;42.652;23.364;2023-10-31T05:46:03;13.98;;;6.38;;
33190;SDS011;19554;42.652;23.364;2023-10-31T05:48:30;17.40;;;7.03;;
33190;SDS011;19554;42.652;23.364;2023-10-31T05:50:56;13.80;;;6.22;;
33190;SDS011;19554;42.652;23.364;2023-10-31T05:53:21;16.80;;;6.45;;
33190;SDS011;19554;42.652;23.364;2023-10-31T05:55:46;16.42;;;6.20;;
33190;SDS011;19554;42.652;23.364;2023-10-31T05:58:12;13.88;;;6.32;;
33190;SDS011;19554;42.652;23.364;2023-10-31T06:00:37;12.55;;;5.63;;
33190;SDS011;19554;42.652;23.364;2023-10-31T06:03:03;19.58;;;6.70;;
33190;SDS011;19554;42.652;23.364;2023-10-31T06:05:28;16.40;;;7.10;;
33190;SDS011;19554;42.652;23.364;2023-10-31T06:07:53;12.95;;;6.45;;
33190;SDS011;19554;42.652;23.364;2023-10-31T06:10:20;17.58;;;6.68;;
33190;SDS011;19554;42.652;23.364;2023-10-31T06:12:46;17.10;;;6.72;;
33190;SDS011;19554;42.652;23.364;2023-10-31T06:15:12;17.83;;;7.30;;
33190;SDS011;19554;42.652;23.364;2023-10-31T06:17:37;23.60;;;7.50;;
33190;SDS011;19554;42.652;23.364;2023-10-31T06:20:02;15.50;;;7.28;;
33190;SDS011;19554;42.652;23.364;2023-10-31T06:22:28;20.58;;;7.50;;
33190;SDS011;19554;42.652;23.364;2023-10-31T06:24:53;23.35;;;8.93;;
33190;SDS011;19554;42.652;23.364;2023-10-31T06:27:19;18.05;;;8.43;;
33190;SDS011;19554;42.652;23.364;2023-10-31T06:29:44;26.48;;;9.75;;
33190;SDS011;19554;42.652;23.364;2023-10-31T06:32:09;20.45;;;10.48;;
33190;SDS011;19554;42.652;23.364;2023-10-31T06:34:35;20.00;;;8.68;;
33190;SDS011;19554;42.652;23.364;2023-10-31T06:37:00;18.00;;;7.30;;
33190;SDS011;19554;42.652;23.364;2023-10-31T06:39:25;18.95;;;7.25;;
33190;SDS011;19554;42.652;23.364;2023-10-31T06:41:54;15.63;;;7.97;;
33190;SDS011;19554;42.652;23.364;2023-10-31T06:44:20;17.57;;;7.93;;
33190;SDS011;19554;42.652;23.364;2023-10-31T06:46:46;16.25;;;8.38;;
33190;SDS011;19554;42.652;23.364;2023-10-31T06:49:11;17.50;;;9.45;;
33190;SDS011;19554;42.652;23.364;2023-10-31T06:51:36;17.45;;;8.93;;
33190;SDS011;19554;42.652;23.364;2023-10-31T06:54:02;18.10;;;8.27;;
33190;SDS011;19554;42.652;23.364;2023-10-31T06:56:27;18.70;;;8.45;;
33190;SDS011;19554;42.652;23.364;2023-10-31T06:58:53;16.65;;;8.70;;
33190;SDS011;19554;42.652;23.364;2023-10-31T07:01:19;20.33;;;9.25;;
33190;SDS011;19554;42.652;23.364;2023-10-31T07:03:44;19.83;;;9.07;;
33190;SDS011;19554;42.652;23.364;2023-10-31T07:06:10;22.83;;;9.00;;
33190;SDS011;19554;42.652;23.364;2023-10-31T07:08:35;22.83;;;9.25;;
33190;SDS011;19554;42.652;23.364;2023-10-31T07:11:01;19.23;;;8.75;;
33190;SDS011;19554;42.652;23.364;2023-10-31T07:13:26;19.58;;;8.82;;
33190;SDS011;19554;42.652;23.364;2023-10-31T07:15:51;16.10;;;8.50;;
33190;SDS011;19554;42.652;23.364;2023-10-31T07:18:17;17.02;;;8.50;;
33190;SDS011;19554;42.652;23.364;2023-10-31T07:20:42;15.70;;;9.35;;
33190;SDS011;19554;42.652;23.364;2023-10-31T07:23:07;27.55;;;10.52;;
33190;SDS011;19554;42.652;23.364;2023-10-31T07:25:33;18.77;;;8.65;;
33190;SDS011;19554;42.652;23.364;2023-10-31T07:27:58;17.73;;;9.23;;
33190;SDS011;19554;42.652;23.364;2023-10-31T07:30:24;19.67;;;9.45;;
33190;SDS011;19554;42.652;23.364;2023-10-31T07:32:49;19.83;;;8.55;;
33190;SDS011;19554;42.652;23.364;2023-10-31T07:35:14;14.10;;;8.57;;
33190;SDS011;19554;42.652;23.364;2023-10-31T07:37:40;20.00;;;9.70;;
33190;SDS011;19554;42.652;23.364;2023-10-31T07:40:05;19.35;;;9.00;;
33190;SDS011;19554;42.652;23.364;2023-10-31T07:42:31;23.02;;;8.85;;
33190;SDS011;19554;42.652;23.364;2023-10-31T07:44:56;20.50;;;9.38;;
33190;SDS011;19554;42.652;23.364;2023-10-31T07:47:22;23.52;;;10.10;;
33190;SDS011;19554;42.652;23.364;2023-10-31T07:49:47;17.10;;;9.10;;
33190;SDS011;19554;42.652;23.364;2023-10-31T07:52:13;15.45;;;9.02;;
33190;SDS011;19554;42.652;23.364;2023-10-31T07:54:39;14.65;;;8.13;;
33190;SDS011;19554;42.652;23.364;2023-10-31T07:57:08;16.42;;;8.40;;
33190;SDS011;19554;42.652;23.364;2023-10-31T07:59:34;21.05;;;8.52;;
33190;SDS011;19554;42.652;23.364;2023-10-31T08:02:00;15.55;;;8.82;;
33190;SDS011;19554;42.652;23.364;2023-10-31T08:04:26;18.88;;;8.40;;
33190;SDS011;19554;42.652;23.364;2023-10-31T08:06:53;13.65;;;7.68;;
33190;SDS011;19554;42.652;23.364;2023-10-31T08:09:18;19.88;;;8.05;;
33190;SDS011;19554;42.652;23.364;2023-10-31T08:11:43;15.70;;;7.80;;
33190;SDS011;19554;42.652;23.364;2023-10-31T08:14:09;13.13;;;6.60;;
33190;SDS011;19554;42.652;23.364;2023-10-31T08:16:35;10.27;;;6.32;;
33190;SDS011;19554;42.652;23.364;2023-10-31T08:19:02;14.38;;;6.30;;
33190;SDS011;19554;42.652;23.364;2023-10-31T08:21:27;14.65;;;7.22;;
33190;SDS011;19554;42.652;23.364;2023-10-31T08:23:58;12.55;;;6.18;;
33190;SDS011;19554;42.652;23.364;2023-10-31T08:26:24;13.05;;;6.32;;
33190;SDS011;19554;42.652;23.364;2023-10-31T08:28:49;11.95;;;6.13;;
33190;SDS011;19554;42.652;23.364;2023-10-31T08:31:16;13.23;;;6.22;;
33190;SDS011;19554;42.652;23.364;2023-10-31T08:33:41;12.93;;;6.13;;
33190;SDS011;19554;42.652;23.364;2023-10-31T08:36:07;13.77;;;5.50;;
33190;SDS011;19554;42.652;23.364;2023-10-31T08:38:33;16.90;;;6.40;;
33190;SDS011;19554;42.652;23.364;2023-10-31T08:40:58;13.85;;;5.75;;
33190;SDS011;19554;42.652;23.364;2023-10-31T08:43:24;14.00;;;6.47;;
33190;SDS011;19554;42.652;23.364;2023-10-31T08:45:49;16.50;;;5.97;;
33190;SDS011;19554;42.652;23.364;2023-10-31T08:48:14;14.05;;;6.30;;
33190;SDS011;19554;42.652;23.364;2023-10-31T08:50:40;11.32;;;5.57;;
33190;SDS011;19554;42.652;23.364;2023-10-31T08:53:06;15.70;;;5.50;;
33190;SDS011;19554;42.652;23.364;2023-10-31T08:55:31;11.13;;;5.40;;
33190;SDS011;19554;42.652;23.364;2023-10-31T08:57:57;45.65;;;9.25;;
33190;SDS011;19554;42.652;23.364;2023-10-31T09:00:22;21.67;;;5.93;;
33190;SDS011;19554;42.652;23.364;2023-10-31T09:02:48;13.85;;;5.35;;
33190;SDS011;19554;42.652;23.364;2023-10-31T09:05:13;13.30;;;4.80;;
33190;SDS011;19554;42.652;23.364;2023-10-31T09:07:39;36.90;;;6.38;;
33190;SDS011;19554;42.652;23.364;2023-10-31T09:10:04;50.80;;;9.18;;
33190;SDS011;19554;42.652;23.364;2023-10-31T09:12:33;14.40;;;5.63;;
33190;SDS011;19554;42.652;23.364;2023-10-31T09:14:58;7.65;;;4.30;;
33190;SDS011;19554;42.652;23.364;2023-10-31T09:17:24;11.15;;;4.55;;
33190;SDS011;19554;42.652;23.364;2023-10-31T09:19:49;9.65;;;4.35;;
33190;SDS011;19554;42.652;23.364;2023-10-31T09:22:14;12.18;;;4.53;;
33190;SDS011;19554;42.652;23.364;2023-10-31T09:24:41;11.23;;;5.18;;
33190;SDS011;19554;42.652;23.364;2023-10-31T09:27:07;12.10;;;4.78;;
33190;SDS011;19554;42.652;23.364;2023-10-31T09:29:33;10.98;;;6.50;;
33190;SDS011;19554;42.652;23.364;2023-10-31T09:31:58;10.63;;;5.13;;
33190;SDS011;19554;42.652;23.364;2023-10-31T09:34:24;10.80;;;4.72;;
33190;SDS011;19554;42.652;23.364;2023-10-31T09:36:49;17.40;;;4.75;;
33190;SDS011;19554;42.652;23.364;2023-10-31T09:39:15;9.48;;;4.15;;
33190;SDS011;19554;42.652;23.364;2023-10-31T09:41:40;10.70;;;5.10;;
33190;SDS011;19554;42.652;23.364;2023-10-31T09:44:06;16.15;;;5.40;;
33190;SDS011;19554;42.652;23.364;2023-10-31T09:46:31;8.98;;;4.97;;
33190;SDS011;19554;42.652;23.364;2023-10-31T09:48:57;11.82;;;4.65;;
33190;SDS011;19554;42.652;23.364;2023-10-31T09:51:22;13.90;;;4.88;;
33190;SDS011;19554;42.652;23.364;2023-10-31T09:53:48;12.32;;;4.68;;
33190;SDS011;19554;42.652;23.364;2023-10-31T09:56:15;9.10;;;4.63;;
33190;SDS011;19554;42.652;23.364;2023-10-31T09:58:41;13.98;;;4.72;;
33190;SDS011;19554;42.652;23.364;2023-10-31T10:01:07;13.10;;;4.75;;
33190;SDS011;19554;42.652;23.364;2023-10-31T10:03:32;13.02;;;4.97;;
33190;SDS011;19554;42.652;23.364;2023-10-31T10:05:58;11.23;;;4.88;;
33190;SDS011;19554;42.652;23.364;2023-10-31T10:08:23;11.52;;;4.53;;
33190;SDS011;19554;42.652;23.364;2023-10-31T10:10:52;9.75;;;4.10;;
33190;SDS011;19554;42.652;23.364;2023-10-31T10:13:18;12.60;;;4.80;;
33190;SDS011;19554;42.652;23.364;2023-10-31T10:15:47;15.15;;;6.47;;
33190;SDS011;19554;42.652;23.364;2023-10-31T10:18:26;11.55;;;4.75;;
33190;SDS011;19554;42.652;23.364;2023-10-31T10:20:58;8.57;;;4.93;;
33190;SDS011;19554;42.652;23.364;2023-10-31T10:25:51;12.18;;;4.63;;
33190;SDS011;19554;42.652;23.364;2023-10-31T10:28:17;11.20;;;5.43;;
33190;SDS011;19554;42.652;23.364;2023-10-31T10:30:46;12.05;;;4.90;;
33190;SDS011;19554;42.652;23.364;2023-10-31T10:33:13;11.30;;;5.25;;
33190;SDS011;19554;42.652;23.364;2023-10-31T10:35:39;15.80;;;4.60;;
33190;SDS011;19554;42.652;23.364;2023-10-31T10:38:10;14.05;;;4.90;;
33190;SDS011;19554;42.652;23.364;2023-10-31T10:40:38;8.43;;;4.22;;
33190;SDS011;19554;42.652;23.364;2023-10-31T10:43:06;15.85;;;4.75;;
33190;SDS011;19554;42.652;23.364;2023-10-31T10:45:37;11.40;;;3.83;;
33190;SDS011;19554;42.652;23.364;2023-10-31T10:48:04;13.60;;;3.95;;
33190;SDS011;19554;42.652;23.364;2023-10-31T10:50:35;11.77;;;4.00;;
33190;SDS011;19554;42.652;23.364;2023-10-31T10:53:25;12.38;;;4.47;;
33190;SDS011;19554;42.652;23.364;2023-10-31T10:55:56;11.48;;;4.18;;
33190;SDS011;19554;42.652;23.364;2023-10-31T11:01:17;13.45;;;4.95;;
33190;SDS011;19554;42.652;23.364;2023-10-31T11:03:44;11.20;;;5.40;;
33190;SDS011;19554;42.652;23.364;2023-10-31T11:06:11;12.50;;;5.25;;
33190;SDS011;19554;42.652;23.364;2023-10-31T11:08:37;12.65;;;4.90;;
33190;SDS011;19554;42.652;23.364;2023-10-31T11:11:03;11.60;;;4.90;;
33190;SDS011;19554;42.652;23.364;2023-10-31T11:13:30;19.27;;;5.55;;
33190;SDS011;19554;42.652;23.364;2023-10-31T11:15:57;17.23;;;4.63;;
33190;SDS011;19554;42.652;23.364;2023-10-31T11:18:26;9.43;;;4.90;;
33190;SDS011;19554;42.652;23.364;2023-10-31T11:20:52;11.57;;;4.05;;
33190;SDS011;19554;42.652;23.364;2023-10-31T11:23:18;9.20;;;4.18;;
33190;SDS011;19554;42.652;23.364;2023-10-31T11:25:44;17.98;;;4.50;;
33190;SDS011;19554;42.652;23.364;2023-10-31T11:28:13;11.35;;;4.65;;
33190;SDS011;19554;42.652;23.364;2023-10-31T11:30:43;13.52;;;4.47;;
33190;SDS011;19554;42.652;23.364;2023-10-31T11:33:13;11.30;;;4.45;;
33190;SDS011;19554;42.652;23.364;2023-10-31T11:35:40;14.15;;;4.40;;
33190;SDS011;19554;42.652;23.364;2023-10-31T11:38:09;10.95;;;3.97;;
33190;SDS011;19554;42.652;23.364;2023-10-31T11:43:14;17.85;;;5.20;;
33190;SDS011;19554;42.652;23.364;2023-10-31T11:45:43;12.35;;;4.07;;
33190;SDS011;19554;42.652;23.364;2023-10-31T11:48:13;17.80;;;4.60;;
33190;SDS011;19554;42.652;23.364;2023-10-31T11:50:39;21.30;;;6.25;;
33190;SDS011;19554;42.652;23.364;2023-10-31T11:53:09;14.30;;;5.43;;
33190;SDS011;19554;42.652;23.364;2023-10-31T11:55:42;16.63;;;5.30;;
33190;SDS011;19554;42.652;23.364;2023-10-31T12:00:37;20.67;;;5.78;;
33190;SDS011;19554;42.652;23.364;2023-10-31T12:03:02;18.55;;;5.43;;
33190;SDS011;19554;42.652;23.364;2023-10-31T12:05:28;9.00;;;4.70;;
33190;SDS011;19554;42.652;23.364;2023-10-31T12:07:54;15.77;;;4.75;;
33190;SDS011;19554;42.652;23.364;2023-10-31T12:10:29;9.13;;;4.03;;
33190;SDS011;19554;42.652;23.364;2023-10-31T12:12:56;9.63;;;4.03;;
33190;SDS011;19554;42.652;23.364;2023-10-31T12:15:23;15.10;;;4.65;;
33190;SDS011;19554;42.652;23.364;2023-10-31T12:17:49;15.77;;;5.15;;
33190;SDS011;19554;42.652;23.364;2023-10-31T12:20:14;15.05;;;4.75;;
33190;SDS011;19554;42.652;23.364;2023-10-31T12:22:44;9.05;;;4.50;;
33190;SDS011;19554;42.652;23.364;2023-10-31T12:25:10;20.17;;;4.40;;
33190;SDS011;19554;42.652;23.364;2023-10-31T12:30:18;15.93;;;4.60;;
33190;SDS011;19554;42.652;23.364;2023-10-31T12:32:52;14.48;;;4.20;;
33190;SDS011;19554;42.652;23.364;2023-10-31T12:35:20;16.35;;;4.50;;
33190;SDS011;19554;42.652;23.364;2023-10-31T12:37:47;8.95;;;4.68;;
33190;SDS011;19554;42.652;23.364;2023-10-31T12:40:15;13.32;;;5.70;;
33190;SDS011;19554;42.652;23.364;2023-10-31T12:42:42;18.27;;;4.95;;
33190;SDS011;19554;42.652;23.364;2023-10-31T12:45:09;13.25;;;4.82;;
33190;SDS011;19554;42.652;23.364;2023-10-31T12:47:35;11.63;;;4.45;;
33190;SDS011;19554;42.652;23.364;2023-10-31T12:50:07;13.52;;;4.85;;
33190;SDS011;19554;42.652;23.364;2023-10-31T12:52:50;10.68;;;4.90;;
33190;SDS011;19554;42.652;23.364;2023-10-31T12:55:16;20.33;;;4.90;;
33190;SDS011;19554;42.652;23.364;2023-10-31T12:57:52;12.85;;;4.18;;
33190;SDS011;19554;42.652;23.364;2023-10-31T13:00:19;14.48;;;4.80;;
33190;SDS011;19554;42.652;23.364;2023-10-31T13:02:50;12.18;;;4.72;;
33190;SDS011;19554;42.652;23.364;2023-10-31T13:05:32;14.10;;;4.13;;
33190;SDS011;19554;42.652;23.364;2023-10-31T13:07:58;10.75;;;4.80;;
33190;SDS011;19554;42.652;23.364;2023-10-31T13:10:25;10.88;;;4.18;;
33190;SDS011;19554;42.652;23.364;2023-10-31T13:12:52;9.82;;;4.10;;
33190;SDS011;19554;42.652;23.364;2023-10-31T13:15:19;9.38;;;4.18;;
33190;SDS011;19554;42.652;23.364;2023-10-31T13:17:45;10.00;;;3.92;;
33190;SDS011;19554;42.652;23.364;2023-10-31T13:20:12;9.95;;;5.47;;
33190;SDS011;19554;42.652;23.364;2023-10-31T13:22:40;14.25;;;5.07;;
33190;SDS011;19554;42.652;23.364;2023-10-31T13:25:07;11.88;;;4.30;;
33190;SDS011;19554;42.652;23.364;2023-10-31T13:27:35;12.07;;;4.30;;
33190;SDS011;19554;42.652;23.364;2023-10-31T13:30:08;13.95;;;4.47;;
33190;SDS011;19554;42.652;23.364;2023-10-31T13:32:35;11.88;;;4.10;;
33190;SDS011;19554;42.652;23.364;2023-10-31T13:35:01;11.13;;;4.20;;
33190;SDS011;19554;42.652;23.364;2023-10-31T13:37:26;7.55;;;4.13;;
33190;SDS011;19554;42.652;23.364;2023-10-31T13:39:52;8.70;;;4.25;;
33190;SDS011;19554;42.652;23.364;2023-10-31T13:42:17;15.00;;;5.07;;
33190;SDS011;19554;42.652;23.364;2023-10-31T13:44:43;18.13;;;5.20;;
33190;SDS011;19554;42.652;23.364;2023-10-31T13:47:09;13.95;;;5.00;;
33190;SDS011;19554;42.652;23.364;2023-10-31T13:49:34;13.07;;;5.20;;
33190;SDS011;19554;42.652;23.364;2023-10-31T13:52:00;14.60;;;4.72;;
33190;SDS011;19554;42.652;23.364;2023-10-31T13:54:26;14.32;;;4.70;;
33190;SDS011;19554;42.652;23.364;2023-10-31T13:56:51;16.75;;;4.15;;
33190;SDS011;19554;42.652;23.364;2023-10-31T13:59:17;20.45;;;5.22;;
33190;SDS011;19554;42.652;23.364;2023-10-31T14:01:45;23.15;;;5.15;;
33190;SDS011;19554;42.652;23.364;2023-10-31T14:04:11;19.50;;;5.03;;
33190;SDS011;19554;42.652;23.364;2023-10-31T14:06:40;8.35;;;4.32;;
33190;SDS011;19554;42.652;23.364;2023-10-31T14:09:07;13.55;;;4.90;;
33190;SDS011;19554;42.652;23.364;2023-10-31T14:11:34;17.75;;;4.88;;
33190;SDS011;19554;42.652;23.364;2023-10-31T14:14:00;17.27;;;5.47;;
33190;SDS011;19554;42.652;23.364;2023-10-31T14:16:31;22.08;;;5.38;;
33190;SDS011;19554;42.652;23.364;2023-10-31T14:18:57;13.75;;;5.53;;
33190;SDS011;19554;42.652;23.364;2023-10-31T14:21:22;10.88;;;5.32;;
33190;SDS011;19554;42.652;23.364;2023-10-31T14:23:48;14.35;;;5.68;;
33190;SDS011;19554;42.652;23.364;2023-10-31T14:26:19;11.95;;;5.47;;
33190;SDS011;19554;42.652;23.364;2023-10-31T14:28:48;18.77;;;5.60;;
33190;SDS011;19554;42.652;23.364;2023-10-31T14:31:14;13.18;;;5.38;;